Barnstable Municipal Boardman Polando Field
KHYA : now visible

Aeroporto :











RITROVATECI SU...

 
LOGIN :

Iscrizione | Disclaimer

   EN    FR    IT 

 









Sommario :    VFR   VFR Marginale   IFR   IFR Intensivo   IFR Molto Intensivo
Visibilità : 
Base nubi : 
>= 8 km
>= 3000ft
5 / 8 km
1000 / 3000 ft
1500m / 5 km
500 / 1000 ft
800 / 1500m
200 / 500 ft
< 800m
< 200 ft
Simboli :   Temporali  Nebbia  Neve Forte  Precipitazioni Forti  Vento > 20 kt







- Altitudine del aeroporto : 54 ft
- Codice IATA : HYA


KHYA - Barnstable Municipal Boardman Polando Field

ULTIMO METAR :
  • 201456Z 35011KT 10SM CLR 27/15 A3006 RMK AO2 SLP179 T02720150 51003

METARs OBSOLETI :
  • 201356Z 33009KT 10SM CLR 27/16 A3006 RMK AO2 SLP179 T02720161
  • 201256Z 32007KT 10SM CLR 27/16 A3005 RMK AO2 SLP177 T02670161

TAF KHYA
Valido dal 20 a 15 ore il 21 a 12 ore UTC


201443Z 2015/2112 34009KT P6SM SKC
FM201700 03005KT P6SM FEW050
FM201900 07004KT P6SM FEW050
FM202000 12004KT P6SM FEW050
FM210400 18005KT P6SM SCT250
Nessun NOTAM noto per questo aeroporto.



MetMap, La meteo Aeronautica in un colpo d'occhio ! - Copyright ORBIFLY Dicembre 2007 - Disclaimer

ORBIFLY MET'MAP TEAM :

Programmazione e sviluppo : Alexandra Zaïnal
Concezione e sviluppo : Baudouin d'Aumeries
Co-Programmazione e sviluppo : Marc-Olivier Méhu
Supporto tecnico e logistico : Manuel Goepfert
Aiuto per la traduzione : Arnaldo La Scala

Contatto : metmap@orbifly.com




FONTI E CREDITI :

   NOAA       Earth
Advisory